Time;durP1;ratioP1;P1;durP2;ratioP2;P2;SDS_P1;SDS_P2;PMS_P1;PMS_P2;Temp;Humidity;BMP_temperature;BMP_pressure;BME280_temperature;BME280_humidity;BME280_pressure;Samples;Min_cycle;Max_cycle;Signal;HPM_P1;HPM_P2
2022/10/14 00:01:47;;;;;;;0.40;0.40;;;;;;;11.10;81.64;100207.16;5130010;28;20496;-68
2022/10/14 00:04:12;;;;;;;0.50;0.50;;;;;;;11.06;81.93;100195.09;5129854;28;20046;-68
2022/10/14 00:06:38;;;;;;;1.15;1.15;;;;;;;11.05;81.99;100192.50;5129895;28;20058;-71
2022/10/14 00:09:06;;;;;;;0.52;0.52;;;;;;;11.08;81.62;100192.47;5129766;28;20019;-69
2022/10/14 00:11:33;;;;;;;1.23;1.23;;;;;;;11.08;81.93;100188.16;5129940;28;20023;-69
2022/10/14 00:14:03;;;;;;;0.70;0.70;;;;;;;11.17;81.64;100194.09;5129680;28;20055;-70
2022/10/14 00:16:32;;;;;;;0.40;0.40;;;;;;;11.14;82.13;100188.06;5129550;28;20019;-71
2022/10/14 00:18:58;;;;;;;1.73;1.35;;;;;;;11.13;82.17;100186.31;5129443;28;20463;-70
2022/10/14 00:21:24;;;;;;;0.32;0.32;;;;;;;11.08;82.48;100187.28;5129767;28;20045;-69
2022/10/14 00:23:50;;;;;;;0.50;0.50;;;;;;;11.10;82.31;100185.53;5129289;28;20388;-68
2022/10/14 00:26:21;;;;;;;0.40;0.40;;;;;;;11.12;82.34;100189.81;5129440;28;20065;-69
2022/10/14 00:28:47;;;;;;;2.35;2.25;;;;;;;11.14;82.31;100182.84;5129305;28;20073;-69
2022/10/14 00:31:13;;;;;;;1.08;1.08;;;;;;;11.14;82.44;100182.84;5129525;28;20035;-68
2022/10/14 00:33:39;;;;;;;0.50;0.50;;;;;;;11.12;82.67;100179.41;5129352;28;20026;-69
2022/10/14 00:36:05;;;;;;;1.05;1.05;;;;;;;11.09;83.00;100179.47;5129467;28;20505;-68
2022/10/14 00:38:31;;;;;;;1.58;1.55;;;;;;;11.07;83.32;100183.81;5128195;28;20050;-68
2022/10/14 00:40:56;;;;;;;0.80;0.80;;;;;;;11.02;83.37;100183.88;5129567;28;20023;-69
2022/10/14 00:43:24;;;;;;;2.40;1.25;;;;;;;11.01;83.65;100181.28;5129205;28;20066;-69
2022/10/14 00:45:50;;;;;;;1.05;1.05;;;;;;;10.97;83.54;100170.13;5129556;28;20039;-70
2022/10/14 00:48:17;;;;;;;0.50;0.50;;;;;;;11.07;83.79;100181.22;5129019;28;20030;-68
2022/10/14 00:50:45;;;;;;;0.40;0.40;;;;;;;11.01;83.80;100169.19;5129198;28;20034;-69
2022/10/14 00:53:12;;;;;;;1.92;1.77;;;;;;;11.04;83.91;100173.47;5128800;28;20055;-68
2022/10/14 00:55:39;;;;;;;0.70;0.70;;;;;;;11.05;84.07;100172.59;5128967;28;20043;-68
2022/10/14 00:58:05;;;;;;;0.60;0.60;;;;;;;11.05;84.16;100176.94;5128933;28;20050;-69
2022/10/14 01:00:31;;;;;;;0.40;0.40;;;;;;;11.05;84.25;100174.31;5129164;28;20072;-68
2022/10/14 01:02:56;;;;;;;3.03;2.83;;;;;;;11.09;84.07;100176.00;5128665;28;20019;-68
2022/10/14 01:05:26;;;;;;;0.50;0.50;;;;;;;11.08;84.08;100161.28;5128842;28;20108;-69
2022/10/14 01:08:08;;;;;;;0.60;0.60;;;;;;;11.11;84.37;100167.31;5127825;28;20483;-69
2022/10/14 01:11:06;;;;;;;0.68;0.68;;;;;;;11.18;84.14;100172.41;5128730;28;20016;-69
2022/10/14 01:13:35;;;;;;;2.25;2.15;;;;;;;11.21;84.12;100169.78;5111186;28;20487;-68
2022/10/14 01:16:29;;;;;;;2.58;2.38;;;;;;;11.24;84.19;100159.34;5128696;28;20023;-69
2022/10/14 01:19:17;;;;;;;0.40;0.40;;;;;;;11.22;84.67;100168.88;5128459;28;20024;-69
2022/10/14 01:21:54;;;;;;;0.40;0.40;;;;;;;11.18;84.69;100162.91;5128637;28;20028;-69
2022/10/14 01:24:51;;;;;;;13.45;1.65;;;;;;;11.19;84.84;100153.34;5128214;28;20106;-70
2022/10/14 01:27:31;;;;;;;0.70;0.70;;;;;;;11.24;84.84;100161.94;5128733;28;20077;-69
2022/10/14 01:30:21;;;;;;;0.40;0.40;;;;;;;11.13;84.94;100149.94;5128332;28;20015;-69
2022/10/14 01:33:04;;;;;;;1.35;1.25;;;;;;;11.23;85.12;100152.44;5117686;28;20547;-68
2022/10/14 01:35:30;;;;;;;0.40;0.40;;;;;;;11.28;85.14;100156.66;5128246;28;20031;-70
2022/10/14 01:38:03;;;;;;;1.05;1.05;;;;;;;11.25;84.96;100150.63;5128014;28;20023;-69
2022/10/14 01:40:43;;;;;;;0.88;0.88;;;;;;;11.33;85.09;100153.13;5127891;28;20031;-69
2022/10/14 01:43:12;;;;;;;1.48;1.02;;;;;;;11.33;85.11;100148.78;5128232;28;20016;-69
2022/10/14 01:45:41;;;;;;;0.40;0.40;;;;;;;11.35;84.88;100141.84;5128357;28;20048;-69
2022/10/14 01:48:10;;;;;;;0.40;0.40;;;;;;;11.33;84.69;100141.00;5127866;28;20057;-70
2022/10/14 01:50:37;;;;;;;1.08;1.08;;;;;;;11.46;84.85;100159.84;5143805;27;20027;-69
2022/10/14 01:53:11;;;;;;;2.58;1.02;;;;;;;11.47;84.53;100147.72;5127738;28;20028;-68
2022/10/14 01:55:43;;;;;;;0.60;0.60;;;;;;;11.48;84.47;100155.50;5127774;28;20305;-68
2022/10/14 01:58:11;;;;;;;0.50;0.50;;;;;;;11.52;84.36;100146.75;5127996;28;20028;-68
2022/10/14 02:00:37;;;;;;;0.88;0.88;;;;;;;11.53;84.15;100152.81;5127670;28;20019;-69
2022/10/14 02:03:02;;;;;;;0.50;0.50;;;;;;;11.48;84.24;100141.63;5127563;28;20035;-68
2022/10/14 02:05:37;;;;;;;0.50;0.50;;;;;;;11.47;84.25;100145.97;5127459;28;20027;-68
2022/10/14 02:08:35;;;;;;;0.30;0.30;;;;;;;11.48;84.45;100150.31;5127646;28;20034;-68
2022/10/14 02:11:16;;;;;;;0.95;0.90;;;;;;;11.40;84.55;100146.97;5119946;28;20092;-69
2022/10/14 02:13:59;;;;;;;0.50;0.50;;;;;;;11.40;84.64;100147.81;5127372;28;20107;-68
2022/10/14 02:16:39;;;;;;;0.40;0.40;;;;;;;11.38;84.58;100146.97;5127522;28;20043;-69
2022/10/14 02:19:27;;;;;;;2.15;2.05;;;;;;;11.40;84.81;100152.16;5126327;28;20028;-68
2022/10/14 02:22:00;;;;;;;0.40;0.40;;;;;;;11.37;84.57;100144.41;5127483;28;20024;-68
2022/10/14 02:24:36;;;;;;;1.20;1.20;;;;;;;11.36;84.77;100147.88;5126984;28;20023;-68
2022/10/14 02:27:07;;;;;;;0.50;0.50;;;;;;;11.37;84.92;100142.66;5127372;28;20400;-68
2022/10/14 02:29:36;;;;;;;0.50;0.50;;;;;;;11.40;84.95;100137.44;5127139;28;20030;-68
2022/10/14 02:32:05;;;;;;;3.15;1.92;;;;;;;11.43;84.75;100146.03;5127147;28;20028;-67
2022/10/14 02:34:32;;;;;;;0.77;0.77;;;;;;;11.44;84.61;100145.19;5126886;28;20022;-68
2022/10/14 02:36:58;;;;;;;1.42;1.33;;;;;;;11.42;84.70;100146.94;5127110;28;20020;-68
2022/10/14 02:39:30;;;;;;;0.40;0.40;;;;;;;11.38;84.94;100146.97;5126510;28;20499;-68
2022/10/14 02:41:56;;;;;;;0.75;0.75;;;;;;;11.48;84.74;100144.22;5127181;28;20028;-68
2022/10/14 02:44:21;;;;;;;0.98;0.98;;;;;;;11.47;84.68;100139.94;5126767;28;20030;-69
2022/10/14 02:46:47;;;;;;;1.38;1.38;;;;;;;11.49;84.59;100133.81;5126897;28;20047;-68
2022/10/14 02:49:12;;;;;;;0.40;0.40;;;;;;;11.53;84.56;100140.66;5126759;28;20024;-69
2022/10/14 02:51:38;;;;;;;0.40;0.40;;;;;;;11.55;84.45;100140.63;5126861;28;20031;-68
2022/10/14 02:54:03;;;;;;;0.40;0.40;;;;;;;11.56;84.50;100137.16;5126428;28;20047;-67
2022/10/14 02:56:28;;;;;;;0.40;0.40;;;;;;;11.62;84.38;100131.88;5126655;28;20035;-68
2022/10/14 02:58:54;;;;;;;0.40;0.40;;;;;;;11.55;84.71;100121.59;5126422;28;20023;-69
2022/10/14 03:01:19;;;;;;;0.50;0.50;;;;;;;11.67;84.47;100128.31;5126560;28;20054;-69
2022/10/14 03:03:44;;;;;;;0.30;0.30;;;;;;;11.70;84.50;100134.31;5126382;28;20081;-68
2022/10/14 03:06:10;;;;;;;0.40;0.40;;;;;;;11.69;84.47;100127.41;5126668;28;20023;-68
2022/10/14 03:08:35;;;;;;;1.00;1.00;;;;;;;11.68;85.36;100132.66;5126395;28;20024;-69
2022/10/14 03:11:01;;;;;;;0.45;0.45;;;;;;;11.67;85.61;100129.19;5126462;28;20019;-69
2022/10/14 03:13:26;;;;;;;0.40;0.40;;;;;;;11.70;85.61;100138.66;5126181;28;20030;-69
2022/10/14 03:15:51;;;;;;;0.40;0.40;;;;;;;11.69;85.77;100131.75;5126393;28;20421;-68
2022/10/14 03:18:17;;;;;;;0.40;0.40;;;;;;;11.69;85.91;100130.03;5126290;28;20020;-68
2022/10/14 03:20:43;;;;;;;0.40;0.40;;;;;;;11.73;86.24;100138.59;5126360;28;20026;-69
2022/10/14 03:23:09;;;;;;;0.40;0.40;;;;;;;11.72;86.16;100136.91;5126138;28;20531;-68
2022/10/14 03:25:35;;;;;;;0.40;0.40;;;;;;;11.74;85.90;100129.94;5126124;28;20034;-69
2022/10/14 03:28:01;;;;;;;0.40;0.40;;;;;;;11.76;86.41;100130.75;5140840;27;20015;-68
2022/10/14 03:30:26;;;;;;;0.50;0.50;;;;;;;11.73;86.54;100128.19;5124403;28;20019;-69
2022/10/14 03:32:51;;;;;;;3.00;2.25;;;;;;;11.71;86.48;100132.59;5125954;28;20057;-69
2022/10/14 03:35:17;;;;;;;0.90;0.90;;;;;;;11.75;86.74;100136.84;5126119;28;20027;-69
2022/10/14 03:37:42;;;;;;;0.65;0.65;;;;;;;11.76;86.67;100131.63;5125908;28;20031;-68
2022/10/14 03:40:09;;;;;;;0.40;0.40;;;;;;;11.74;86.76;100138.56;5125747;28;20542;-71
2022/10/14 03:42:35;;;;;;;0.40;0.40;;;;;;;11.76;86.97;100133.34;5141846;27;20040;-68
2022/10/14 03:45:01;;;;;;;0.45;0.45;;;;;;;11.77;86.80;100137.69;5125954;28;20023;-69
2022/10/14 03:47:27;;;;;;;0.68;0.68;;;;;;;11.76;86.65;100135.94;5125907;28;20051;-69
2022/10/14 03:49:52;;;;;;;2.30;0.90;;;;;;;11.78;86.91;100135.06;5126192;28;20051;-70
2022/10/14 03:52:18;;;;;;;0.50;0.50;;;;;;;11.74;86.97;100127.34;5125882;28;20049;-69
2022/10/14 03:54:43;;;;;;;1.17;1.08;;;;;;;11.75;87.25;100131.63;5125658;28;20452;-69
2022/10/14 03:57:09;;;;;;;0.70;0.70;;;;;;;11.79;86.79;100130.69;5125979;28;20015;-69
2022/10/14 03:59:34;;;;;;;0.40;0.40;;;;;;;11.75;87.29;100132.50;5125769;28;20050;-71
2022/10/14 04:01:59;;;;;;;2.45;2.25;;;;;;;11.76;87.32;100133.34;5107521;28;20015;-69
2022/10/14 04:04:25;;;;;;;0.40;0.40;;;;;;;11.73;87.30;100125.59;5125749;28;20020;-69
2022/10/14 04:06:50;;;;;;;0.93;0.93;;;;;;;11.65;87.15;100121.41;5125875;28;20483;-68
2022/10/14 04:09:16;;;;;;;0.40;0.40;;;;;;;11.69;87.53;100126.56;5125575;28;20027;-70
2022/10/14 04:11:41;;;;;;;0.60;0.60;;;;;;;11.68;87.24;100124.84;5125032;28;20027;-69
2022/10/14 04:14:07;;;;;;;0.65;0.65;;;;;;;11.64;87.50;100122.31;5124307;28;20030;-68
2022/10/14 04:16:32;;;;;;;0.50;0.50;;;;;;;11.60;87.26;100119.75;5124478;28;20027;-68
2022/10/14 04:18:58;;;;;;;0.40;0.40;;;;;;;11.56;87.25;100118.09;5124599;28;20023;-68
2022/10/14 04:21:23;;;;;;;0.52;0.52;;;;;;;11.55;87.80;100122.44;5125581;28;20485;-70
2022/10/14 04:23:49;;;;;;;2.15;2.05;;;;;;;11.55;87.43;100119.84;5125223;28;20467;-70
2022/10/14 04:26:15;;;;;;;1.42;1.15;;;;;;;11.53;87.44;100108.63;5125682;28;20556;-70
2022/10/14 04:28:40;;;;;;;0.50;0.50;;;;;;;11.53;87.56;100116.44;5125575;28;20024;-70
2022/10/14 04:31:06;;;;;;;3.92;3.63;;;;;;;11.55;87.07;100109.44;5125607;28;20083;-71
2022/10/14 04:33:31;;;;;;;0.65;0.65;;;;;;;11.53;87.18;100112.06;5125491;28;20055;-70
2022/10/14 04:35:58;;;;;;;0.40;0.40;;;;;;;11.50;87.06;100106.06;5125535;28;20027;-70
2022/10/14 04:38:23;;;;;;;0.90;0.90;;;;;;;11.46;87.00;100104.41;5125090;28;20035;-68
2022/10/14 04:40:49;;;;;;;0.40;0.40;;;;;;;11.48;87.02;100105.25;5125645;28;20084;-71
2022/10/14 04:43:14;;;;;;;1.50;1.40;;;;;;;11.52;86.48;100106.88;5128403;28;20016;-70
2022/10/14 04:45:41;;;;;;;5.78;2.38;;;;;;;11.45;86.77;100102.69;5129219;28;20046;-71
2022/10/14 04:48:06;;;;;;;1.08;0.70;;;;;;;11.45;86.40;100095.75;5129084;28;20031;-70
2022/10/14 04:50:32;;;;;;;0.40;0.40;;;;;;;11.39;86.59;100096.69;5129166;28;20023;-70
2022/10/14 04:52:57;;;;;;;0.73;0.73;;;;;;;11.33;86.75;100096.81;5129148;28;20076;-69
2022/10/14 04:55:25;;;;;;;0.50;0.50;;;;;;;11.34;86.55;100101.13;5128811;28;20020;-73
2022/10/14 04:57:51;;;;;;;0.77;0.77;;;;;;;11.32;86.61;100105.50;5144881;27;20027;-70
2022/10/14 05:00:16;;;;;;;0.60;0.60;;;;;;;11.35;86.45;100101.97;5110525;28;20047;-70
2022/10/14 05:02:48;;;;;;;0.60;0.60;;;;;;;11.30;86.52;100093.41;5129062;28;20277;-69
2022/10/14 05:05:13;;;;;;;0.60;0.60;;;;;;;11.30;86.51;100099.47;5129109;28;20474;-70
2022/10/14 05:07:45;;;;;;;0.50;0.50;;;;;;;11.26;86.71;100100.41;5129437;28;20023;-73
2022/10/14 05:10:13;;;;;;;0.50;0.50;;;;;;;11.25;86.84;100101.28;5128720;28;20159;-71
2022/10/14 05:12:41;;;;;;;0.40;0.40;;;;;;;11.22;87.03;100102.19;5128990;28;20028;-72
2022/10/14 05:15:07;;;;;;;0.40;0.40;;;;;;;11.21;86.97;100103.09;5128711;28;20023;-71
2022/10/14 05:17:35;;;;;;;0.82;0.82;;;;;;;11.17;86.71;100095.38;5128956;28;20113;-72
2022/10/14 05:20:00;;;;;;;0.40;0.40;;;;;;;11.13;87.07;100092.78;5128375;28;20023;-72
2022/10/14 05:22:26;;;;;;;0.40;0.40;;;;;;;11.12;86.78;100091.06;5128305;28;20031;-72
2022/10/14 05:24:52;;;;;;;0.40;0.40;;;;;;;11.20;86.70;100100.50;5127659;28;20055;-72
2022/10/14 05:27:17;;;;;;;0.40;0.40;;;;;;;11.10;86.23;100085.03;5127619;28;20130;-71
2022/10/14 05:29:42;;;;;;;0.40;0.40;;;;;;;11.17;86.27;100087.56;5126158;28;20024;-72
2022/10/14 05:32:08;;;;;;;5.20;1.50;;;;;;;11.14;85.93;100091.91;5126083;28;20027;-73
2022/10/14 05:34:34;;;;;;;0.40;0.40;;;;;;;11.15;85.30;100096.22;5125038;28;20106;-71
2022/10/14 05:37:12;;;;;;;0.40;0.40;;;;;;;11.11;85.24;100091.97;5127823;28;20459;-71
2022/10/14 05:39:37;;;;;;;0.40;0.40;;;;;;;11.13;85.08;100097.16;5108251;28;20039;-71
2022/10/14 05:42:03;;;;;;;0.50;0.50;;;;;;;11.08;84.83;100092.03;5127443;28;20047;-71
2022/10/14 05:44:28;;;;;;;0.40;0.40;;;;;;;11.10;84.25;100098.03;5126442;28;20019;-71
2022/10/14 05:46:54;;;;;;;0.40;0.40;;;;;;;11.10;83.99;100103.22;5127460;28;20069;-71
2022/10/14 05:49:19;;;;;;;0.50;0.50;;;;;;;11.10;83.98;100089.41;5127328;28;20016;-71
2022/10/14 05:51:45;;;;;;;0.40;0.40;;;;;;;11.11;83.89;100093.69;5127270;28;20364;-72
2022/10/14 05:54:11;;;;;;;0.40;0.40;;;;;;;11.12;83.33;100095.41;5126869;28;20088;-71
2022/10/14 05:56:36;;;;;;;0.50;0.50;;;;;;;11.12;83.74;100088.47;5127101;28;20015;-70
2022/10/14 05:59:02;;;;;;;0.50;0.50;;;;;;;11.13;83.68;100092.78;5126857;28;20031;-71
2022/10/14 06:01:27;;;;;;;0.40;0.40;;;;;;;11.09;83.32;100096.31;5142859;27;20046;-71
2022/10/14 06:03:52;;;;;;;0.40;0.40;;;;;;;11.12;83.19;100093.69;5126690;28;20027;-70
2022/10/14 06:06:18;;;;;;;0.40;0.40;;;;;;;11.13;82.97;100089.34;5126748;28;20027;-70
2022/10/14 06:08:44;;;;;;;0.40;0.40;;;;;;;11.15;83.05;100095.34;5126339;28;20019;-70
2022/10/14 06:11:10;;;;;;;0.52;0.52;;;;;;;11.17;82.78;100098.78;5126786;28;20030;-71
2022/10/14 06:13:35;;;;;;;0.40;0.40;;;;;;;11.17;82.84;100098.78;5126565;28;20028;-70
2022/10/14 06:16:05;;;;;;;0.40;0.40;;;;;;;11.19;81.89;100096.16;5126586;28;20076;-70
2022/10/14 06:18:32;;;;;;;0.40;0.40;;;;;;;11.14;82.44;100099.72;5126457;28;20046;-71
2022/10/14 06:20:57;;;;;;;0.50;0.50;;;;;;;11.13;81.77;100097.16;5126396;28;20331;-70
2022/10/14 06:23:23;;;;;;;0.40;0.40;;;;;;;11.18;81.37;100108.31;5142062;27;20016;-70
2022/10/14 06:25:48;;;;;;;0.40;0.40;;;;;;;11.13;81.29;100099.75;5126210;28;20034;-70
2022/10/14 06:28:13;;;;;;;0.40;0.40;;;;;;;11.12;80.87;100100.59;5126448;28;20016;-71
2022/10/14 06:30:39;;;;;;;0.40;0.40;;;;;;;11.18;80.74;100099.66;5126330;28;20045;-71
2022/10/14 06:33:04;;;;;;;0.38;0.38;;;;;;;11.22;81.03;100111.72;5126302;28;20027;-71
2022/10/14 06:35:29;;;;;;;0.40;0.40;;;;;;;11.15;80.87;100100.56;5126238;28;20027;-71
2022/10/14 06:37:55;;;;;;;0.40;0.40;;;;;;;11.17;79.82;100098.78;5107777;28;20031;-69
2022/10/14 06:40:20;;;;;;;0.40;0.40;;;;;;;11.21;79.91;100105.69;5125466;28;20306;-69
2022/10/14 06:42:46;;;;;;;0.40;0.40;;;;;;;11.22;79.27;100103.91;5107673;28;20027;-71
2022/10/14 06:45:11;;;;;;;0.40;0.40;;;;;;;11.23;79.74;100101.28;5125834;28;20079;-70
2022/10/14 06:47:36;;;;;;;0.40;0.40;;;;;;;11.20;79.05;100103.09;5125885;28;20053;-70
2022/10/14 06:50:02;;;;;;;0.40;0.40;;;;;;;11.28;78.73;100101.22;5125999;28;20103;-70
2022/10/14 06:52:28;;;;;;;0.40;0.40;;;;;;;11.26;78.38;100098.66;5125976;28;20030;-72
2022/10/14 06:54:53;;;;;;;1.67;1.58;;;;;;;11.30;78.22;100101.19;5125425;28;20043;-71
2022/10/14 06:57:18;;;;;;;0.40;0.40;;;;;;;11.29;77.94;100108.16;5125823;28;20088;-71
2022/10/14 06:59:44;;;;;;;0.40;0.40;;;;;;;11.34;77.67;100108.91;5107240;28;20024;-70
2022/10/14 07:02:10;;;;;;;0.40;0.40;;;;;;;11.45;78.00;100102.69;5125645;28;20135;-71
2022/10/14 07:04:37;;;;;;;0.40;0.40;;;;;;;11.50;78.39;100104.31;5124970;28;20030;-70
2022/10/14 07:07:02;;;;;;;0.40;0.40;;;;;;;11.55;78.56;100103.41;5125780;28;20031;-71
2022/10/14 07:09:28;;;;;;;0.40;0.40;;;;;;;11.59;77.74;100103.31;5125286;28;20030;-70
2022/10/14 07:11:53;;;;;;;0.40;0.40;;;;;;;11.61;77.84;100103.28;5125487;28;20143;-70
2022/10/14 07:14:19;;;;;;;0.40;0.40;;;;;;;11.69;77.33;100108.34;5141075;27;20019;-72
2022/10/14 07:16:44;;;;;;;0.40;0.40;;;;;;;11.74;76.73;100114.34;5125390;28;20023;-71
2022/10/14 07:19:10;;;;;;;0.40;0.40;;;;;;;11.75;76.51;100111.72;5125336;28;20028;-71
2022/10/14 07:21:36;;;;;;;0.40;0.40;;;;;;;11.94;77.41;100110.50;5106996;28;20028;-72
2022/10/14 07:24:01;;;;;;;1.05;1.05;;;;;;;12.00;76.92;100112.97;5125045;28;20097;-70
2022/10/14 07:26:29;;;;;;;0.40;0.40;;;;;;;12.05;77.23;100115.47;5124884;28;20027;-71
2022/10/14 07:28:55;;;;;;;0.40;0.40;;;;;;;12.06;76.55;100115.44;5124163;28;20022;-71
2022/10/14 07:31:20;;;;;;;0.32;0.32;;;;;;;12.13;75.40;100117.09;5106362;28;20086;-71
2022/10/14 07:33:46;;;;;;;0.40;0.40;;;;;;;12.07;75.16;100118.91;5125200;28;20030;-70
2022/10/14 07:36:14;;;;;;;0.30;0.30;;;;;;;12.21;75.45;100121.28;5125242;28;20352;-72
2022/10/14 07:38:40;;;;;;;0.40;0.40;;;;;;;12.26;74.98;100122.91;5124709;28;20063;-70
2022/10/14 07:41:15;;;;;;;0.40;0.40;;;;;;;12.31;74.52;100119.34;5125280;28;20019;-72
2022/10/14 07:43:42;;;;;;;0.40;0.40;;;;;;;12.34;73.78;100120.16;5124940;28;20031;-71
2022/10/14 07:46:07;;;;;;;0.40;0.40;;;;;;;12.45;74.00;100130.34;5125081;28;20088;-72
2022/10/14 07:48:34;;;;;;;0.40;0.40;;;;;;;12.51;73.70;100126.75;5124985;28;20028;-72
2022/10/14 07:50:59;;;;;;;0.40;0.40;;;;;;;12.58;74.32;100127.47;5106528;28;20110;-72
2022/10/14 07:53:26;;;;;;;0.40;0.40;;;;;;;12.61;73.64;100124.81;5140857;28;20043;-70
2022/10/14 07:55:51;;;;;;;0.30;0.30;;;;;;;12.71;73.94;100126.34;5124584;28;20047;-71
2022/10/14 07:58:21;;;;;;;0.40;0.40;;;;;;;12.80;73.07;100125.25;5125161;28;20023;-72
2022/10/14 08:00:48;;;;;;;0.40;0.40;;;;;;;12.79;73.59;100115.75;5124939;28;20031;-72
2022/10/14 08:03:13;;;;;;;0.30;0.30;;;;;;;12.84;72.62;100126.91;5106564;28;20024;-73
2022/10/14 08:05:39;;;;;;;0.35;0.35;;;;;;;12.81;71.47;100131.34;5124774;28;20032;-72
2022/10/14 08:08:05;;;;;;;0.40;0.40;;;;;;;12.81;71.28;100126.97;5124926;28;20024;-71
2022/10/14 08:10:31;;;;;;;0.40;0.40;;;;;;;12.89;71.10;100130.25;5106250;28;20019;-70
2022/10/14 08:12:56;;;;;;;0.30;0.30;;;;;;;12.93;70.69;100132.78;5124803;28;20027;-71
2022/10/14 08:15:22;;;;;;;0.47;0.47;;;;;;;13.17;72.06;100135.72;5140809;28;20054;-72
2022/10/14 08:17:47;;;;;;;0.32;0.32;;;;;;;13.18;71.81;100135.69;5129033;28;20030;-72
2022/10/14 08:20:12;;;;;;;0.30;0.30;;;;;;;13.20;70.32;100133.91;5129033;28;20056;-71
2022/10/14 08:22:38;;;;;;;0.40;0.40;;;;;;;13.26;70.72;100131.16;5128897;28;20483;-71
2022/10/14 08:25:04;;;;;;;0.30;0.30;;;;;;;13.42;71.41;100138.59;5128680;28;20024;-71
2022/10/14 08:27:29;;;;;;;0.40;0.40;;;;;;;13.45;70.22;100140.28;5128812;28;20075;-72
2022/10/14 08:29:54;;;;;;;1.15;1.15;;;;;;;13.49;68.88;100139.31;5128711;28;20391;-71
2022/10/14 08:32:20;;;;;;;1.20;1.20;;;;;;;13.56;67.87;100143.50;5128915;28;20015;-71
2022/10/14 08:34:45;;;;;;;0.30;0.30;;;;;;;13.68;67.19;100134.53;5128345;28;20024;-71
2022/10/14 08:37:11;;;;;;;0.30;0.30;;;;;;;13.92;67.56;100141.72;5128727;28;20450;-72
2022/10/14 08:39:36;;;;;;;0.30;0.30;;;;;;;14.00;65.62;100137.16;5109840;28;20039;-70
2022/10/14 08:42:17;;;;;;;0.40;0.40;;;;;;;14.04;64.81;100144.00;5128500;28;20023;-72
2022/10/14 08:44:56;;;;;;;0.70;0.70;;;;;;;14.04;64.29;100144.00;5128384;28;20019;-72
2022/10/14 08:47:29;;;;;;;0.47;0.47;;;;;;;13.97;63.57;100138.13;5144309;27;20024;-72
2022/10/14 08:50:32;;;;;;;0.30;0.30;;;;;;;14.00;62.70;100139.78;5128440;28;20046;-72
2022/10/14 08:53:19;;;;;;;0.30;0.30;;;;;;;13.95;62.25;100139.03;5085968;28;20043;-71
2022/10/14 08:55:47;;;;;;;0.30;0.30;;;;;;;14.00;63.01;100142.38;5143930;27;20034;-72
2022/10/14 08:58:20;;;;;;;0.40;0.40;;;;;;;14.18;62.42;100137.56;5128863;28;20022;-71
2022/10/14 09:00:49;;;;;;;2.55;2.25;;;;;;;14.44;61.94;100136.81;5129032;28;20079;-72
2022/10/14 09:03:20;;;;;;;1.15;1.15;;;;;;;14.57;61.50;100139.09;5110263;28;20019;-72
2022/10/14 09:05:52;;;;;;;0.30;0.30;;;;;;;14.68;61.49;100136.16;5128453;28;20019;-72
2022/10/14 09:08:26;;;;;;;0.40;0.40;;;;;;;14.67;60.66;100147.50;5128483;28;20047;-72
2022/10/14 09:10:52;;;;;;;0.30;0.30;;;;;;;14.68;61.50;100137.00;5128464;28;20031;-72
2022/10/14 09:13:27;;;;;;;0.30;0.30;;;;;;;14.77;62.38;100142.84;5128182;28;20035;-73
2022/10/14 09:16:05;;;;;;;0.30;0.30;;;;;;;14.63;60.83;100137.13;5128068;28;20028;-73
2022/10/14 09:18:35;;;;;;;0.40;0.40;;;;;;;14.49;60.96;100126.22;5109439;28;20038;-72
2022/10/14 09:21:02;;;;;;;0.30;0.30;;;;;;;14.40;60.82;100129.13;5127788;28;20088;-71
2022/10/14 09:23:28;;;;;;;0.30;0.30;;;;;;;14.27;60.90;100129.47;5127668;28;20458;-71
2022/10/14 09:26:02;;;;;;;0.30;0.30;;;;;;;14.20;60.14;100135.78;5127395;28;20016;-71
2022/10/14 09:28:35;;;;;;;0.30;0.30;;;;;;;14.26;61.49;100125.16;5142887;27;20031;-72
2022/10/14 09:31:01;;;;;;;0.30;0.30;;;;;;;14.37;61.49;100127.47;5127929;28;20537;-72
2022/10/14 09:33:28;;;;;;;0.30;0.30;;;;;;;14.47;60.27;100128.06;5127387;28;20087;-73
2022/10/14 09:35:53;;;;;;;0.30;0.30;;;;;;;14.57;60.15;100128.66;5143485;27;20031;-73
2022/10/14 09:38:20;;;;;;;0.30;0.30;;;;;;;14.70;60.09;100127.34;5127253;28;20079;-72
2022/10/14 09:40:48;;;;;;;0.40;0.40;;;;;;;14.76;60.29;100126.31;5127228;28;20051;-74
2022/10/14 09:43:19;;;;;;;0.30;0.30;;;;;;;14.76;60.42;100126.31;5109037;28;20028;-72
2022/10/14 09:46:06;;;;;;;0.40;0.40;;;;;;;14.82;59.49;100128.78;5127198;28;20042;-72
2022/10/14 09:48:33;;;;;;;0.30;0.30;;;;;;;14.88;59.52;100135.56;5127452;28;20028;-73
2022/10/14 09:51:01;;;;;;;0.30;0.30;;;;;;;14.83;58.77;100121.78;5143198;27;20024;-73
2022/10/14 09:53:39;;;;;;;0.30;0.30;;;;;;;14.75;57.52;100115.03;5127172;28;20024;-72
2022/10/14 09:56:07;;;;;;;0.30;0.30;;;;;;;14.98;59.02;100120.47;5126903;28;20049;-72
2022/10/14 09:58:45;;;;;;;0.30;0.30;;;;;;;15.06;58.61;100126.31;5127100;28;20023;-73
2022/10/14 10:01:21;;;;;;;0.30;0.30;;;;;;;15.23;59.30;100122.28;5127017;28;20027;-72
2022/10/14 10:03:49;;;;;;;0.30;0.30;;;;;;;15.13;58.77;100123.50;5126828;28;20051;-71
2022/10/14 10:06:18;;;;;;;0.30;0.30;;;;;;;15.05;59.27;100137.66;5127001;28;20043;-72
2022/10/14 10:08:52;;;;;;;0.30;0.30;;;;;;;15.03;59.17;100133.38;5126570;28;20047;-73
2022/10/14 10:11:38;;;;;;;0.30;0.30;;;;;;;14.84;56.88;100131.34;5126777;28;20031;-73
2022/10/14 10:14:32;;;;;;;0.30;0.30;;;;;;;14.75;56.95;100124.59;5126741;28;20104;-73
2022/10/14 10:17:07;;;;;;;0.30;0.30;;;;;;;14.60;56.90;100121.56;5126599;28;20020;-73
2022/10/14 10:19:34;;;;;;;0.40;0.40;;;;;;;14.49;57.58;100131.47;5126589;28;20024;-72
2022/10/14 10:22:18;;;;;;;0.30;0.30;;;;;;;14.48;57.32;100125.41;5126926;28;20019;-73
2022/10/14 10:24:44;;;;;;;0.40;0.40;;;;;;;14.34;57.11;100125.81;5126129;28;20034;-72
2022/10/14 10:27:34;;;;;;;0.30;0.30;;;;;;;14.28;56.82;100125.94;5126946;28;20023;-72
2022/10/14 10:30:13;;;;;;;0.30;0.30;;;;;;;14.38;57.31;100121.31;5126612;28;20073;-72
2022/10/14 10:33:02;;;;;;;0.30;0.30;;;;;;;14.43;57.50;100121.19;5126250;28;20031;-71
2022/10/14 10:36:05;;;;;;;0.30;0.30;;;;;;;14.55;57.29;100118.25;5085674;28;20099;-73
2022/10/14 10:38:56;;;;;;;0.30;0.30;;;;;;;15.13;56.62;100115.66;5125869;28;20042;-73
2022/10/14 10:41:47;;;;;;;0.50;0.50;;;;;;;15.70;55.68;100118.13;5125112;28;20491;-72
2022/10/14 10:44:18;;;;;;;0.30;0.30;;;;;;;16.06;54.32;100111.66;5125927;28;20661;-72
2022/10/14 10:47:01;;;;;;;0.32;0.32;;;;;;;16.58;53.05;100116.72;5125964;28;20051;-72
2022/10/14 10:49:39;;;;;;;0.30;0.30;;;;;;;17.35;50.65;100116.38;5141772;27;20023;-73
2022/10/14 10:52:28;;;;;;;0.30;0.30;;;;;;;17.50;50.57;100124.53;5126106;28;20031;-74
2022/10/14 10:55:29;;;;;;;0.30;0.30;;;;;;;17.63;50.55;100109.13;5125873;28;20020;-72
2022/10/14 10:58:06;;;;;;;0.30;0.30;;;;;;;18.36;48.45;100118.22;5125863;28;20019;-74
2022/10/14 11:00:38;;;;;;;0.30;0.30;;;;;;;18.74;46.66;100114.75;5125962;28;20372;-73
2022/10/14 11:03:43;;;;;;;0.30;0.30;;;;;;;19.36;45.37;100103.88;5125772;28;20032;-72
2022/10/14 11:12:01;;;;;;;2.50;2.35;;;;;;;20.48;44.10;100105.13;5082206;28;20044;-73
2022/10/14 11:12:37;;;;;;;0.20;0.20;;;;;;;22.08;40.60;100101.34;5003106;28;20065;-73
2022/10/14 11:15:15;;;;;;;0.20;0.20;;;;;;;21.52;40.07;100103.72;5002821;28;20038;-73
2022/10/14 11:17:52;;;;;;;0.20;0.20;;;;;;;19.92;41.68;100101.03;5002878;28;20137;-74
2022/10/14 11:20:29;;;;;;;0.20;0.20;;;;;;;18.81;42.82;100103.00;5002397;28;20521;-73
2022/10/14 11:23:13;;;;;;;1.27;1.27;;;;;;;17.81;44.82;100100.44;5002782;28;20046;-72
2022/10/14 11:26:00;;;;;;;0.30;0.30;;;;;;;17.18;45.62;100103.97;5002396;28;20027;-73
2022/10/14 11:28:50;;;;;;;0.50;0.50;;;;;;;16.63;46.54;100100.81;5001310;28;20072;-72
2022/10/14 11:31:31;;;;;;;0.30;0.30;;;;;;;16.18;47.26;100105.16;5001431;28;20046;-73
2022/10/14 11:33:59;;;;;;;0.30;0.30;;;;;;;15.74;47.21;100104.88;5002296;28;20034;-73
2022/10/14 11:36:48;;;;;;;0.40;0.40;;;;;;;15.36;48.10;100107.91;5002515;28;20054;-73
2022/10/14 11:39:32;;;;;;;0.30;0.30;;;;;;;15.02;49.26;100105.53;4985656;28;20053;-73
2022/10/14 11:42:25;;;;;;;0.30;0.30;;;;;;;14.92;50.00;100110.22;5002491;28;20038;-72